Time;durP1;ratioP1;P1;durP2;ratioP2;P2;SDS_P1;SDS_P2;PMS_P1;PMS_P2;Temp;Humidity;BMP_temperature;BMP_pressure;BME280_temperature;BME280_humidity;BME280_pressure;Samples;Min_cycle;Max_cycle;Signal;HPM_P1;HPM_P2
2022/03/20 05:00:20;;;;;;;28.47;19.17;;;5.90;99.90;;;;;;6036396;23;21287;-76
2022/03/20 05:02:47;;;;;;;33.53;19.53;;;5.90;99.90;;;;;;4965495;28;20468;-75
2022/03/20 05:05:14;;;;;;;29.40;19.70;;;5.90;99.90;;;;;;4966280;28;20471;-76
2022/03/20 05:07:41;;;;;;;31.07;19.30;;;6.00;99.90;;;;;;4965806;28;20452;-76
2022/03/20 05:15:39;;;;;;;28.77;19.57;;;5.90;99.90;;;;;;4947109;29;20472;-76
2022/03/20 05:18:07;;;;;;;31.77;19.80;;;5.90;99.90;;;;;;4946710;29;20916;-76
2022/03/20 05:20:34;;;;;;;32.47;20.47;;;5.90;99.90;;;;;;4945635;28;20469;-76
2022/03/20 05:23:02;;;;;;;27.77;18.90;;;5.90;99.90;;;;;;4946868;28;21215;-76
2022/03/20 05:25:29;;;;;;;29.37;19.00;;;5.90;99.90;;;;;;4946833;28;20952;-76
2022/03/20 05:27:56;;;;;;;33.40;19.13;;;6.00;99.90;;;;;;4946591;29;20476;-76
2022/03/20 05:30:23;;;;;;;28.30;18.93;;;6.00;99.90;;;;;;4946796;28;20464;-76
2022/03/20 05:32:52;;;;;;;36.67;20.70;;;6.00;99.90;;;;;;4946425;29;20611;-76
2022/03/20 05:35:19;;;;;;;27.83;18.70;;;6.10;99.90;;;;;;4946511;29;20457;-76
2022/03/20 05:37:46;;;;;;;29.97;19.03;;;6.10;99.90;;;;;;4946438;29;20502;-77
2022/03/20 05:40:15;;;;;;;29.13;19.60;;;6.10;99.90;;;;;;4946686;28;20453;-77
2022/03/20 05:42:43;;;;;;;33.40;20.77;;;6.10;99.90;;;;;;4946841;28;20560;-76
2022/03/20 05:45:11;;;;;;;30.40;20.63;;;6.10;99.90;;;;;;4946853;28;20461;-76
2022/03/20 05:47:39;;;;;;;37.17;20.63;;;6.20;99.90;;;;;;4947160;29;20822;-76
2022/03/20 05:50:09;;;;;;;31.83;21.00;;;6.20;99.90;;;;;;4947826;28;20552;-76
2022/03/20 05:52:36;;;;;;;34.67;20.53;;;6.20;99.90;;;;;;4948097;28;20477;-76
2022/03/20 05:55:03;;;;;;;34.57;20.53;;;6.20;99.90;;;;;;4948211;29;20535;-76
2022/03/20 06:00:21;;;;;;;31.30;20.10;;;6.30;99.90;;;;;;4948092;28;20826;-76
2022/03/20 06:02:48;;;;;;;31.93;19.30;;;6.30;99.90;;;;;;4948114;28;20461;-76
2022/03/20 06:05:17;;;;;;;29.40;20.20;;;6.30;99.90;;;;;;4950789;29;20476;-76
2022/03/20 06:07:46;;;;;;;30.70;20.10;;;6.30;99.90;;;;;;4951168;28;21239;-76
2022/03/20 06:10:14;;;;;;;28.97;19.40;;;6.40;99.90;;;;;;4951696;28;20461;-76
2022/03/20 06:12:41;;;;;;;35.33;21.10;;;6.40;99.90;;;;;;4951524;29;20469;-76
2022/03/20 06:15:09;;;;;;;32.97;20.80;;;6.40;99.90;;;;;;4951255;29;20461;-76
2022/03/20 06:17:44;;;;;;;30.50;20.10;;;6.50;99.90;;;;;;4950494;28;20496;-76
2022/03/20 06:20:13;;;;;;;29.97;20.13;;;6.50;99.90;;;;;;4951294;28;20453;-76
2022/03/20 06:22:42;;;;;;;29.23;19.97;;;6.50;99.90;;;;;;4951382;28;20453;-76
2022/03/20 06:25:11;;;;;;;30.40;19.87;;;6.50;99.90;;;;;;4951517;29;20457;-76
2022/03/20 06:27:45;;;;;;;29.73;20.60;;;6.60;99.90;;;;;;4950318;28;20461;-76
2022/03/20 06:30:14;;;;;;;31.00;19.80;;;6.60;99.90;;;;;;4951405;28;20460;-76
2022/03/20 06:32:41;;;;;;;27.90;18.77;;;6.70;99.90;;;;;;4950991;28;20462;-76
2022/03/20 06:35:09;;;;;;;36.27;21.17;;;6.70;99.90;;;;;;4950633;29;20484;-71
2022/03/20 06:37:37;;;;;;;31.77;20.07;;;6.80;99.90;;;;;;4949062;29;20501;-69
2022/03/20 06:40:07;;;;;;;30.97;19.07;;;6.80;99.90;;;;;;4949622;29;20472;-69
2022/03/20 06:42:35;;;;;;;29.13;19.53;;;6.90;99.90;;;;;;4949963;28;20485;-69
2022/03/20 06:45:03;;;;;;;33.07;19.27;;;7.00;99.90;;;;;;4949718;29;20544;-70
2022/03/20 06:47:31;;;;;;;28.63;19.30;;;7.00;99.90;;;;;;4948954;29;20458;-73
2022/03/20 06:49:58;;;;;;;34.60;19.77;;;7.10;99.90;;;;;;4949973;29;20512;-71
2022/03/20 06:52:28;;;;;;;31.40;19.43;;;7.10;99.90;;;;;;4950148;28;20488;-73
2022/03/20 06:54:56;;;;;;;32.47;20.50;;;7.20;99.90;;;;;;4951582;29;20556;-74
2022/03/20 06:57:25;;;;;;;33.53;20.93;;;7.20;99.90;;;;;;4949847;29;20836;-74
2022/03/20 06:59:53;;;;;;;30.60;19.20;;;7.30;99.90;;;;;;4951173;29;20461;-73
2022/03/20 07:02:20;;;;;;;30.80;19.73;;;7.40;99.90;;;;;;4950631;28;20493;-73
2022/03/20 07:04:48;;;;;;;35.30;20.23;;;7.40;99.90;;;;;;4949582;29;20472;-74
2022/03/20 07:07:15;;;;;;;29.27;19.60;;;7.50;99.90;;;;;;4948902;28;20461;-73
2022/03/20 07:09:42;;;;;;;33.80;20.40;;;7.50;99.90;;;;;;4950393;29;20458;-73
2022/03/20 07:12:10;;;;;;;29.50;20.60;;;7.50;99.90;;;;;;4949951;28;20478;-74
2022/03/20 07:14:39;;;;;;;28.40;19.87;;;7.60;99.90;;;;;;4949394;28;20453;-75
2022/03/20 07:17:09;;;;;;;34.20;20.90;;;7.60;99.90;;;;;;4948971;28;20909;-75
2022/03/20 07:19:37;;;;;;;31.73;21.10;;;7.70;99.90;;;;;;4949127;29;20910;-75
2022/03/20 07:22:05;;;;;;;31.77;20.87;;;7.80;99.90;;;;;;4948951;28;20560;-74
2022/03/20 07:24:33;;;;;;;29.37;19.13;;;7.90;99.90;;;;;;4949451;29;20458;-75
2022/03/20 07:29:46;;;;;;;29.07;19.30;;;8.00;99.90;;;;;;4949174;28;20437;-74
2022/03/20 07:32:13;;;;;;;35.70;20.77;;;8.00;99.90;;;;;;4948768;28;20488;-75
2022/03/20 07:34:40;;;;;;;29.17;20.10;;;8.10;99.90;;;;;;4949514;28;20465;-74
2022/03/20 07:37:07;;;;;;;33.37;20.20;;;8.10;99.90;;;;;;4948720;28;20568;-75
2022/03/20 07:39:35;;;;;;;30.17;19.80;;;8.20;99.90;;;;;;4949584;29;20497;-75
2022/03/20 07:42:02;;;;;;;30.60;20.97;;;8.40;99.90;;;;;;4949334;28;20474;-75
2022/03/20 07:44:31;;;;;;;35.97;21.07;;;8.40;99.90;;;;;;4950352;29;20461;-74
2022/03/20 07:46:59;;;;;;;29.23;19.83;;;8.50;99.90;;;;;;4949433;29;20528;-74
2022/03/20 07:49:27;;;;;;;29.43;19.83;;;8.60;99.90;;;;;;4931115;29;20455;-75
2022/03/20 07:51:57;;;;;;;29.20;19.90;;;8.70;99.90;;;;;;4931014;29;20478;-75
2022/03/20 07:54:24;;;;;;;32.70;21.77;;;8.90;99.90;;;;;;4931093;29;20474;-75
2022/03/20 07:56:51;;;;;;;28.00;19.17;;;9.00;99.90;;;;;;4929686;29;20465;-74
2022/03/20 07:59:18;;;;;;;32.30;20.20;;;9.00;99.90;;;;;;4930739;29;20877;-75
2022/03/20 08:01:45;;;;;;;31.20;20.00;;;9.10;99.90;;;;;;4930816;29;20497;-75
2022/03/20 08:04:13;;;;;;;30.50;20.87;;;9.10;99.90;;;;;;4931155;29;20514;-75
2022/03/20 08:06:40;;;;;;;31.27;20.57;;;9.20;99.90;;;;;;4929952;29;21029;-74
2022/03/20 08:09:07;;;;;;;27.17;18.80;;;9.30;99.90;;;;;;4931592;29;20461;-74
2022/03/20 08:11:34;;;;;;;32.43;20.47;;;9.40;99.90;;;;;;4931463;29;21024;-75
2022/03/20 08:14:07;;;;;;;30.27;20.10;;;9.50;99.90;;;;;;4931428;29;20460;-75
2022/03/20 08:16:37;;;;;;;31.97;20.20;;;9.70;99.90;;;;;;4931255;29;20462;-75
2022/03/20 08:19:05;;;;;;;26.37;18.67;;;9.80;99.90;;;;;;4931898;29;20494;-75
2022/03/20 08:21:34;;;;;;;28.47;19.70;;;10.00;99.90;;;;;;4939742;29;21099;-75
2022/03/20 08:24:02;;;;;;;32.70;19.93;;;10.30;99.90;;;;;;4942022;29;20478;-75
2022/03/20 08:26:29;;;;;;;29.53;19.63;;;10.50;99.90;;;;;;4931417;29;20458;-75
2022/03/20 08:28:56;;;;;;;28.00;19.07;;;10.60;99.90;;;;;;4951122;29;20517;-76
2022/03/20 08:31:24;;;;;;;28.57;18.87;;;10.70;99.90;;;;;;4950866;29;20569;-75
2022/03/20 08:33:51;;;;;;;31.20;19.23;;;10.90;99.90;;;;;;4951009;28;20472;-75
2022/03/20 08:36:18;;;;;;;30.00;19.80;;;11.00;99.90;;;;;;4940422;29;20456;-74
2022/03/20 08:38:46;;;;;;;32.00;20.10;;;11.10;99.90;;;;;;4942041;29;21081;-75
2022/03/20 08:41:13;;;;;;;29.00;19.63;;;11.20;99.90;;;;;;4942236;29;20470;-75
2022/03/20 08:43:40;;;;;;;29.23;20.40;;;11.30;99.90;;;;;;4941728;29;20494;-74
2022/03/20 08:46:07;;;;;;;26.40;20.00;;;11.50;99.90;;;;;;4933093;29;20466;-76
2022/03/20 08:48:34;;;;;;;28.53;19.57;;;11.80;99.90;;;;;;4933281;29;20561;-75
2022/03/20 08:51:01;;;;;;;27.07;19.37;;;12.20;99.90;;;;;;4933279;29;20994;-76
2022/03/20 08:53:28;;;;;;;30.30;19.87;;;12.50;99.90;;;;;;4931752;29;21321;-76
2022/03/20 08:55:56;;;;;;;25.37;19.37;;;12.50;99.90;;;;;;4932002;29;20457;-76
2022/03/20 08:58:23;;;;;;;28.10;20.10;;;12.50;99.90;;;;;;4930874;29;20502;-76
2022/03/20 09:00:50;;;;;;;28.63;20.40;;;12.70;99.90;;;;;;4930348;29;20868;-75
2022/03/20 09:03:17;;;;;;;31.67;18.87;;;13.10;99.90;;;;;;4930398;29;20462;-76
2022/03/20 09:05:44;;;;;;;25.77;20.10;;;13.40;99.90;;;;;;4930170;29;20450;-76
2022/03/20 09:08:11;;;;;;;24.50;17.93;;;13.50;99.90;;;;;;4929108;29;20461;-74
2022/03/20 09:10:38;;;;;;;32.80;21.47;;;13.80;99.90;;;;;;4929690;29;20482;-76
2022/03/20 09:13:06;;;;;;;28.90;21.27;;;14.00;99.90;;;;;;4929690;29;21187;-76
2022/03/20 09:15:33;;;;;;;28.97;19.70;;;14.20;99.90;;;;;;4929974;29;20462;-76
2022/03/20 09:20:45;;;;;;;30.17;20.20;;;14.70;99.90;;;;;;4929479;29;20465;-76
2022/03/20 09:23:14;;;;;;;25.57;17.67;;;14.80;99.00;;;;;;4930751;29;20466;-76
2022/03/20 09:25:41;;;;;;;26.10;19.93;;;14.70;98.90;;;;;;4930423;29;20480;-76
2022/03/20 09:28:11;;;;;;;26.80;18.90;;;14.80;99.90;;;;;;4929701;29;20534;-76
2022/03/20 09:30:40;;;;;;;26.83;18.67;;;15.00;99.90;;;;;;4930749;29;20486;-76
2022/03/20 09:33:08;;;;;;;33.63;19.03;;;15.20;99.90;;;;;;4930982;29;20465;-76
2022/03/20 09:35:36;;;;;;;27.27;19.67;;;15.10;97.80;;;;;;4931440;29;20462;-76
2022/03/20 09:38:04;;;;;;;25.40;19.70;;;15.00;99.60;;;;;;4929431;29;20524;-76
2022/03/20 09:40:32;;;;;;;30.03;20.17;;;15.60;99.10;;;;;;4933253;29;20222;-76
2022/03/20 09:42:59;;;;;;;25.87;19.13;;;16.10;97.70;;;;;;4934636;29;20482;-76
2022/03/20 09:45:28;;;;;;;24.20;18.23;;;16.00;96.20;;;;;;4933050;29;20450;-74
2022/03/20 09:47:55;;;;;;;24.83;18.93;;;16.00;97.40;;;;;;4931528;29;20476;-76
2022/03/20 09:50:22;;;;;;;29.87;20.47;;;16.40;97.10;;;;;;4932114;29;20943;-76
2022/03/20 09:52:49;;;;;;;26.70;19.23;;;16.30;96.00;;;;;;4932890;29;20463;-76
2022/03/20 09:55:16;;;;;;;26.17;18.83;;;16.10;96.70;;;;;;4933491;29;20526;-75
2022/03/20 09:57:43;;;;;;;30.13;19.47;;;16.30;95.60;;;;;;4932476;29;20541;-75
2022/03/20 10:00:14;;;;;;;24.30;18.03;;;16.30;95.20;;;;;;4932359;29;20504;-75
2022/03/20 10:02:43;;;;;;;23.97;18.90;;;16.90;95.00;;;;;;4933783;29;20462;-75
2022/03/20 10:05:11;;;;;;;24.77;17.87;;;17.30;95.30;;;;;;4933144;29;20454;-76
2022/03/20 10:07:40;;;;;;;27.70;18.57;;;17.20;95.10;;;;;;4932044;29;20454;-76
2022/03/20 10:10:17;;;;;;;27.10;19.00;;;17.60;93.90;;;;;;4932696;29;20454;-75
2022/03/20 10:12:46;;;;;;;27.80;19.17;;;17.70;92.60;;;;;;4932237;29;20449;-75
2022/03/20 10:15:34;;;;;;;25.70;19.43;;;17.90;92.40;;;;;;4932528;29;20462;-75
2022/03/20 10:18:10;;;;;;;24.93;18.37;;;18.00;92.40;;;;;;4932145;29;20465;-75
2022/03/20 10:20:41;;;;;;;27.63;19.50;;;17.90;93.10;;;;;;4932263;29;20596;-75
2022/03/20 10:23:28;;;;;;;25.10;18.77;;;18.20;91.70;;;;;;4931901;29;20462;-74
2022/03/20 10:25:55;;;;;;;25.53;18.40;;;18.60;91.50;;;;;;4931660;29;20868;-75
2022/03/20 10:28:23;;;;;;;27.63;19.37;;;18.90;91.30;;;;;;4930624;29;20803;-75
2022/03/20 10:30:57;;;;;;;27.60;19.03;;;18.70;89.00;;;;;;4932540;29;20770;-73
2022/03/20 10:33:26;;;;;;;23.90;19.40;;;18.50;90.00;;;;;;4932388;29;20473;-77
2022/03/20 10:36:13;;;;;;;24.80;20.07;;;18.90;87.20;;;;;;4932274;29;20521;-75
2022/03/20 10:38:41;;;;;;;27.57;19.53;;;18.70;85.20;;;;;;4931618;29;20905;-75
2022/03/20 10:41:19;;;;;;;28.87;18.60;;;18.10;84.80;;;;;;4932197;29;20486;-75
2022/03/20 10:43:46;;;;;;;25.33;17.63;;;17.80;90.00;;;;;;4932432;29;20469;-75
2022/03/20 10:46:19;;;;;;;26.10;18.90;;;18.20;89.40;;;;;;4931621;29;20462;-75
2022/03/20 10:48:49;;;;;;;25.30;19.70;;;18.60;89.00;;;;;;4931636;29;20541;-75
2022/03/20 10:51:37;;;;;;;26.00;19.00;;;18.70;86.70;;;;;;4931322;29;20562;-75
2022/03/20 10:54:05;;;;;;;28.40;19.90;;;19.00;86.20;;;;;;4932389;29;20466;-75
2022/03/20 10:56:33;;;;;;;27.47;19.70;;;18.50;85.40;;;;;;4931190;29;20832;-75
2022/03/20 10:59:02;;;;;;;28.77;20.20;;;18.40;87.60;;;;;;4931835;29;20498;-76
2022/03/20 11:01:36;;;;;;;31.97;20.67;;;18.20;85.70;;;;;;4931206;29;20898;-75
2022/03/20 11:04:06;;;;;;;29.20;19.77;;;18.00;85.00;;;;;;4932004;29;21006;-74
2022/03/20 11:06:32;;;;;;;23.93;19.17;;;18.00;85.80;;;;;;4931755;29;20578;-75
2022/03/20 11:09:02;;;;;;;27.20;19.20;;;18.00;88.80;;;;;;4931567;29;20460;-75
2022/03/20 11:11:30;;;;;;;26.97;18.90;;;18.30;88.00;;;;;;4931146;29;21030;-75
2022/03/20 11:14:00;;;;;;;28.27;19.00;;;18.20;87.80;;;;;;4932218;29;20474;-75
2022/03/20 11:16:29;;;;;;;25.57;19.67;;;17.90;88.20;;;;;;4932781;29;20454;-76
2022/03/20 11:19:00;;;;;;;26.93;18.80;;;17.70;88.60;;;;;;4939104;29;20533;-68
2022/03/20 11:21:30;;;;;;;25.73;18.97;;;17.70;90.10;;;;;;4940319;29;20544;-71
2022/03/20 11:23:58;;;;;;;29.93;19.53;;;17.70;88.50;;;;;;4939224;28;20484;-71
2022/03/20 11:26:27;;;;;;;26.20;18.43;;;17.90;90.90;;;;;;4937172;28;20510;-71
2022/03/20 11:29:00;;;;;;;30.20;18.70;;;18.10;91.00;;;;;;4937248;29;20450;-70
2022/03/20 11:31:28;;;;;;;25.23;16.87;;;18.20;90.20;;;;;;4939279;28;20560;-66
2022/03/20 11:33:56;;;;;;;27.60;18.17;;;18.10;90.20;;;;;;4939655;28;20573;-70
2022/03/20 11:36:23;;;;;;;31.50;19.67;;;18.30;91.70;;;;;;4937400;29;20549;-71
2022/03/20 11:39:12;;;;;;;25.63;17.33;;;18.50;88.70;;;;;;4938586;29;20979;-68
2022/03/20 11:41:42;;;;;;;26.33;17.60;;;18.90;91.60;;;;;;4940151;29;20481;-69
2022/03/20 11:44:21;;;;;;;24.63;18.30;;;18.90;89.20;;;;;;4948419;28;20953;-71
2022/03/20 11:46:51;;;;;;;24.47;18.20;;;18.90;91.40;;;;;;4948253;28;20540;-72
2022/03/20 11:49:26;;;;;;;33.37;19.10;;;19.30;89.30;;;;;;4948763;29;20489;-68
2022/03/20 11:52:06;;;;;;;28.70;19.67;;;19.40;88.40;;;;;;4948227;28;20535;-70
2022/03/20 11:54:53;;;;;;;25.83;16.20;;;19.40;87.20;;;;;;4947983;29;20464;-70
2022/03/20 11:57:40;;;;;;;33.67;26.50;;;19.20;87.30;;;;;;4947804;28;20465;-65
2022/03/20 12:00:13;;;;;;;39.43;26.10;;;19.10;90.70;;;;;;4948279;29;20955;-68
2022/03/20 12:02:52;;;;;;;144.40;106.83;;;19.70;90.60;;;;;;4947388;28;20457;-69
2022/03/20 12:05:28;;;;;;;31.50;21.03;;;20.00;89.50;;;;;;4948345;28;20528;-71
2022/03/20 12:08:05;;;;;;;23.40;16.90;;;20.30;88.70;;;;;;4947315;29;20547;-70
2022/03/20 12:10:48;;;;;;;23.80;16.83;;;20.70;88.20;;;;;;4947975;29;20458;-70
2022/03/20 12:13:24;;;;;;;22.80;17.57;;;20.80;86.20;;;;;;4948204;28;20450;-70
2022/03/20 12:15:52;;;;;;;25.80;17.97;;;20.60;86.90;;;;;;4948419;28;20461;-68
2022/03/20 12:18:19;;;;;;;25.13;16.53;;;20.70;86.20;;;;;;4947584;28;20468;-68
2022/03/20 12:21:03;;;;;;;28.13;18.20;;;20.70;85.70;;;;;;4947768;28;20515;-69
2022/03/20 12:23:39;;;;;;;21.70;15.60;;;20.40;85.20;;;;;;4947755;29;20556;-70
2022/03/20 12:26:31;;;;;;;25.53;16.73;;;20.00;85.30;;;;;;4947320;28;20463;-69
2022/03/20 12:29:28;;;;;;;27.83;17.60;;;20.00;85.00;;;;;;4947984;28;20460;-70
2022/03/20 12:31:56;;;;;;;27.33;16.40;;;20.10;86.10;;;;;;4947985;28;20492;-69
2022/03/20 12:34:25;;;;;;;24.33;17.30;;;20.50;87.90;;;;;;4947705;28;20992;-69
2022/03/20 12:36:52;;;;;;;21.83;15.87;;;21.20;85.10;;;;;;4947138;29;20962;-69
2022/03/20 12:39:49;;;;;;;21.40;14.03;;;21.30;84.10;;;;;;4947453;28;20548;-69
2022/03/20 12:42:18;;;;;;;90.40;60.40;;;21.20;82.90;;;;;;4947699;28;20477;-70
2022/03/20 12:44:47;;;;;;;24.83;15.93;;;21.10;81.70;;;;;;4947579;28;20461;-69
2022/03/20 12:47:17;;;;;;;19.70;14.60;;;21.20;81.00;;;;;;4946777;28;20485;-68
2022/03/20 12:49:47;;;;;;;22.10;15.17;;;21.50;82.10;;;;;;4947383;28;20453;-68
2022/03/20 12:52:18;;;;;;;25.77;16.30;;;21.60;81.50;;;;;;4947718;29;20505;-69
2022/03/20 12:54:55;;;;;;;27.60;16.83;;;21.70;80.80;;;;;;4947918;28;20474;-69
2022/03/20 12:57:40;;;;;;;32.97;17.23;;;21.70;81.80;;;;;;4946622;28;20540;-69
2022/03/20 13:00:10;;;;;;;30.97;16.80;;;21.80;81.30;;;;;;4948105;28;20540;-69
2022/03/20 13:02:59;;;;;;;22.20;16.33;;;21.90;79.30;;;;;;4947364;29;20528;-70
2022/03/20 13:05:27;;;;;;;26.80;16.00;;;22.20;75.60;;;;;;4946961;28;20481;-70
2022/03/20 13:07:54;;;;;;;21.90;16.10;;;22.20;75.80;;;;;;4947067;29;20544;-69
2022/03/20 13:10:22;;;;;;;22.65;16.63;;;22.20;75.70;;;;;;4946486;28;20444;-69
2022/03/20 13:12:55;;;;;;;24.73;15.97;;;22.40;74.90;;;;;;4947737;28;20226;-69
2022/03/20 13:15:26;;;;;;;28.33;15.67;;;22.60;77.90;;;;;;4951440;29;20489;-69
2022/03/20 13:17:53;;;;;;;20.77;15.80;;;22.80;77.70;;;;;;4950448;29;20508;-69
2022/03/20 13:20:23;;;;;;;22.93;15.57;;;22.80;73.70;;;;;;4951145;29;20493;-69
2022/03/20 13:22:50;;;;;;;24.67;16.63;;;22.60;75.80;;;;;;4951264;29;20995;-68
2022/03/20 13:25:19;;;;;;;19.40;15.30;;;22.60;72.40;;;;;;4951203;29;20584;-68
2022/03/20 13:27:48;;;;;;;18.40;14.07;;;22.60;74.30;;;;;;4950523;28;20461;-68
2022/03/20 13:30:18;;;;;;;27.23;17.50;;;22.60;73.20;;;;;;4950713;29;20954;-70
2022/03/20 13:32:54;;;;;;;18.77;15.10;;;22.60;74.00;;;;;;4950758;29;20464;-70
2022/03/20 13:35:21;;;;;;;19.57;13.80;;;22.70;73.00;;;;;;4950801;29;20457;-65
2022/03/20 13:37:52;;;;;;;18.33;13.10;;;22.80;71.10;;;;;;4953141;29;20544;-76
2022/03/20 13:40:22;;;;;;;26.00;14.03;;;22.80;72.50;;;;;;4955640;29;20592;-74
2022/03/20 13:42:49;;;;;;;18.40;13.50;;;23.10;72.40;;;;;;4954198;29;20522;-76
2022/03/20 13:45:17;;;;;;;17.20;13.90;;;23.30;70.80;;;;;;4954830;29;20493;-76
2022/03/20 13:47:45;;;;;;;18.13;14.10;;;23.40;70.70;;;;;;4953667;28;20457;-76
2022/03/20 13:50:15;;;;;;;18.63;13.40;;;23.40;73.00;;;;;;4954201;29;20449;-76
2022/03/20 13:52:42;;;;;;;21.23;14.47;;;23.30;72.60;;;;;;4954133;29;20464;-75
2022/03/20 13:55:12;;;;;;;17.07;13.77;;;23.20;72.70;;;;;;4953699;29;20468;-76
2022/03/20 13:57:53;;;;;;;22.73;13.33;;;23.30;73.20;;;;;;4953676;29;20559;-76
2022/03/20 14:00:31;;;;;;;17.10;13.27;;;23.50;73.00;;;;;;4955010;29;20964;-76
2022/03/20 14:02:58;;;;;;;19.17;12.70;;;23.50;71.00;;;;;;4955593;29;20465;-75
2022/03/20 14:05:25;;;;;;;19.20;13.30;;;23.60;70.90;;;;;;4955810;29;20520;-76
2022/03/20 14:08:14;;;;;;;20.43;13.87;;;23.60;67.80;;;;;;4954539;29;20950;-75
2022/03/20 14:10:49;;;;;;;19.87;12.23;;;23.60;68.90;;;;;;4956019;29;20533;-76
2022/03/20 14:13:24;;;;;;;20.13;14.40;;;23.60;69.00;;;;;;4957990;28;20481;-75
2022/03/20 14:16:03;;;;;;;19.57;14.00;;;23.60;67.50;;;;;;4956482;28;20513;-74
2022/03/20 14:18:31;;;;;;;27.33;13.80;;;23.60;64.90;;;;;;4955062;29;20465;-75
2022/03/20 14:21:15;;;;;;;22.83;13.10;;;23.60;65.40;;;;;;4955911;29;20528;-76
2022/03/20 14:24:01;;;;;;;20.13;14.57;;;23.60;65.10;;;;;;4955701;28;20461;-76
2022/03/20 14:26:30;;;;;;;19.50;13.40;;;23.60;65.50;;;;;;4954681;29;20457;-75
2022/03/20 14:29:10;;;;;;;19.07;13.20;;;23.60;63.60;;;;;;4955281;28;20951;-75
2022/03/20 14:40:08;;;;;;;19.20;13.33;;;23.60;63.60;;;;;;4954912;28;20544;-76
2022/03/20 14:42:36;;;;;;;21.03;14.10;;;23.60;63.40;;;;;;4955318;29;20560;-77
2022/03/20 14:45:04;;;;;;;20.17;13.77;;;23.50;63.20;;;;;;4953797;28;20462;-77
2022/03/20 14:47:33;;;;;;;17.67;13.40;;;23.30;62.60;;;;;;4953516;29;20548;-77
2022/03/20 14:50:00;;;;;;;16.60;13.67;;;23.10;62.70;;;;;;4955273;29;20472;-76
2022/03/20 14:52:27;;;;;;;19.70;13.60;;;23.20;64.40;;;;;;4955931;28;20485;-76
2022/03/20 14:54:54;;;;;;;19.60;13.83;;;23.20;66.10;;;;;;4956374;28;20500;-77
2022/03/20 14:57:22;;;;;;;18.53;14.90;;;23.30;66.20;;;;;;4955132;28;20852;-76
2022/03/20 14:59:51;;;;;;;19.70;15.07;;;23.30;64.00;;;;;;4954465;28;20653;-76
2022/03/20 15:02:19;;;;;;;20.03;14.53;;;23.30;65.00;;;;;;4954707;28;20497;-77
2022/03/20 15:04:49;;;;;;;18.50;14.00;;;23.30;65.30;;;;;;4955521;28;20459;-76
2022/03/20 15:07:17;;;;;;;20.10;13.50;;;23.30;65.00;;;;;;4955340;29;20454;-74
2022/03/20 15:12:29;;;;;;;16.37;13.40;;;23.30;63.30;;;;;;4954656;28;20461;-75
2022/03/20 15:14:56;;;;;;;18.47;14.57;;;23.30;63.30;;;;;;4954134;29;20908;-74
2022/03/20 15:17:23;;;;;;;19.80;15.60;;;23.30;64.70;;;;;;4953061;28;20500;-75
2022/03/20 15:19:52;;;;;;;19.70;15.17;;;23.20;62.90;;;;;;4952858;29;20540;-76
2022/03/20 15:22:19;;;;;;;21.30;15.73;;;23.10;64.00;;;;;;4953030;28;20546;-75
2022/03/20 15:24:46;;;;;;;24.90;16.70;;;23.10;63.80;;;;;;4952901;29;20974;-76
2022/03/20 15:27:16;;;;;;;23.40;15.43;;;23.00;63.30;;;;;;4951787;28;20512;-77
2022/03/20 15:29:43;;;;;;;22.37;15.13;;;22.90;64.30;;;;;;4951452;28;20480;-76
2022/03/20 15:32:11;;;;;;;24.40;16.93;;;22.60;63.90;;;;;;4955206;28;20476;-75
2022/03/20 15:34:39;;;;;;;23.40;17.63;;;22.50;64.00;;;;;;4951337;28;20466;-75
2022/03/20 15:37:07;;;;;;;21.27;16.70;;;22.40;63.30;;;;;;4950360;28;20468;-75
2022/03/20 15:39:34;;;;;;;22.27;16.67;;;22.40;64.00;;;;;;4950047;29;21037;-76
2022/03/20 15:42:04;;;;;;;23.97;16.10;;;22.40;64.20;;;;;;4951470;28;20551;-77
2022/03/20 15:44:31;;;;;;;24.50;15.63;;;22.50;63.50;;;;;;4950907;28;21268;-75
2022/03/20 15:46:59;;;;;;;24.37;15.30;;;22.60;64.20;;;;;;4951202;28;20524;-77
2022/03/20 15:49:26;;;;;;;19.80;15.40;;;22.70;64.40;;;;;;4951553;28;20879;-77
2022/03/20 15:51:56;;;;;;;21.50;15.70;;;22.70;63.10;;;;;;4950548;28;20552;-76
2022/03/20 15:54:24;;;;;;;20.57;14.73;;;22.80;62.20;;;;;;4952184;28;20757;-77
2022/03/20 15:56:51;;;;;;;24.97;17.50;;;22.90;62.20;;;;;;4950182;28;21420;-75
2022/03/20 15:59:18;;;;;;;19.90;16.17;;;22.90;61.90;;;;;;4951172;29;20548;-77
2022/03/20 16:01:47;;;;;;;20.03;14.93;;;23.00;62.20;;;;;;4950674;28;21219;-76
2022/03/20 16:04:14;;;;;;;23.90;15.90;;;23.00;62.40;;;;;;4951149;28;20469;-75
2022/03/20 16:06:41;;;;;;;24.50;16.97;;;23.10;62.80;;;;;;4950211;28;20954;-76
2022/03/20 16:09:08;;;;;;;18.50;14.20;;;23.00;61.70;;;;;;4951143;28;21198;-76
2022/03/20 16:11:36;;;;;;;20.83;15.33;;;22.90;61.40;;;;;;4950248;29;20532;-76
2022/03/20 16:14:04;;;;;;;20.70;14.90;;;22.90;60.60;;;;;;4949790;29;20897;-76
2022/03/20 16:16:31;;;;;;;24.93;16.00;;;22.80;61.80;;;;;;4949755;28;20471;-77
2022/03/20 16:19:02;;;;;;;18.90;15.40;;;22.70;60.60;;;;;;4950276;29;20521;-73
2022/03/20 16:21:32;;;;;;;17.67;14.27;;;22.60;61.00;;;;;;4950684;28;20501;-73
2022/03/20 16:29:29;;;;;;;19.00;14.87;;;22.30;61.00;;;;;;4952150;28;20581;-76
2022/03/20 16:32:00;;;;;;;20.77;15.00;;;22.30;61.80;;;;;;4951226;28;20477;-76
2022/03/20 16:34:27;;;;;;;21.87;14.50;;;22.10;60.90;;;;;;4952328;28;20449;-76
2022/03/20 16:36:55;;;;;;;16.73;13.53;;;21.90;61.40;;;;;;4951927;29;20855;-75
2022/03/20 16:39:23;;;;;;;16.30;13.90;;;21.70;61.40;;;;;;4953525;29;20472;-75
2022/03/20 16:41:51;;;;;;;21.77;15.53;;;21.50;62.00;;;;;;4953945;28;20501;-76
2022/03/20 16:44:19;;;;;;;24.73;16.00;;;21.30;62.70;;;;;;4954182;29;20544;-76
2022/03/20 16:46:47;;;;;;;19.97;15.47;;;21.00;61.60;;;;;;4954586;29;20459;-77
2022/03/20 16:49:16;;;;;;;23.20;17.80;;;20.70;63.20;;;;;;4954184;28;20548;-75
2022/03/20 16:51:44;;;;;;;20.23;14.40;;;20.50;62.70;;;;;;4955078;28;20509;-75
2022/03/20 16:54:12;;;;;;;21.17;14.90;;;20.40;62.60;;;;;;4954202;28;20977;-75
2022/03/20 16:56:42;;;;;;;17.20;14.10;;;20.20;62.70;;;;;;4954102;28;20508;-76
2022/03/20 16:59:10;;;;;;;18.90;14.20;;;20.00;62.80;;;;;;4955682;29;20453;-76
2022/03/20 17:01:37;;;;;;;18.50;14.70;;;19.80;62.20;;;;;;4955820;28;20536;-76
2022/03/20 17:04:05;;;;;;;18.97;15.07;;;19.60;62.50;;;;;;4954851;29;20961;-76
2022/03/20 17:06:32;;;;;;;16.37;12.97;;;19.30;61.70;;;;;;4950931;28;20454;-75
2022/03/20 17:09:00;;;;;;;20.40;14.50;;;19.10;63.10;;;;;;4953911;28;20508;-76
2022/03/20 17:11:28;;;;;;;19.57;14.30;;;18.90;62.70;;;;;;4953422;28;20488;-75
2022/03/20 17:13:55;;;;;;;19.20;14.30;;;18.70;63.10;;;;;;4956121;29;20465;-75
2022/03/20 17:16:23;;;;;;;20.40;14.67;;;18.50;63.00;;;;;;4955297;28;21176;-76
2022/03/20 17:18:50;;;;;;;20.60;14.47;;;18.30;63.20;;;;;;4951771;28;20485;-74
2022/03/20 17:21:17;;;;;;;20.47;14.70;;;18.10;63.60;;;;;;4949182;29;20603;-75
2022/03/20 17:23:44;;;;;;;18.67;12.90;;;17.90;63.60;;;;;;4949456;29;20504;-76
2022/03/20 17:26:11;;;;;;;19.87;13.17;;;17.80;64.20;;;;;;4949101;28;20465;-75
2022/03/20 17:28:39;;;;;;;17.87;13.60;;;17.70;64.90;;;;;;4948040;29;20544;-75
2022/03/20 17:31:06;;;;;;;22.10;15.83;;;17.60;65.40;;;;;;4949621;28;20477;-75
2022/03/20 17:33:34;;;;;;;21.53;15.27;;;17.50;64.80;;;;;;4950666;29;20512;-75
2022/03/20 17:36:03;;;;;;;17.70;14.57;;;17.40;65.20;;;;;;4949521;29;20457;-77
2022/03/20 17:38:30;;;;;;;17.57;14.30;;;17.30;65.20;;;;;;4949832;29;20453;-76
2022/03/20 17:40:57;;;;;;;20.80;15.23;;;17.20;65.40;;;;;;4951147;29;20509;-76
2022/03/20 17:43:24;;;;;;;20.10;14.63;;;17.10;66.00;;;;;;4950060;28;20457;-76
2022/03/20 17:45:51;;;;;;;17.90;13.27;;;17.00;65.60;;;;;;4952763;28;20521;-75
2022/03/20 17:48:19;;;;;;;21.50;14.83;;;16.90;66.80;;;;;;4950925;29;20535;-72
2022/03/20 17:50:47;;;;;;;19.00;14.10;;;16.80;65.90;;;;;;4948064;28;20482;-74
2022/03/20 17:53:15;;;;;;;18.87;14.37;;;16.60;66.20;;;;;;4948775;29;20465;-75
2022/03/20 17:55:44;;;;;;;21.80;13.10;;;16.50;66.50;;;;;;4948517;29;20457;-76
2022/03/20 17:58:12;;;;;;;20.03;15.13;;;16.40;67.20;;;;;;4947836;29;20465;-75
2022/03/20 18:00:39;;;;;;;23.33;15.23;;;16.30;66.90;;;;;;4949852;28;21012;-75
2022/03/20 18:08:37;;;;;;;20.03;14.77;;;15.90;68.00;;;;;;4950021;28;20448;-75
2022/03/20 18:11:04;;;;;;;20.50;14.10;;;15.80;67.90;;;;;;4950480;28;20560;-76
2022/03/20 18:13:31;;;;;;;19.30;13.50;;;15.70;68.20;;;;;;4950915;28;20831;-77
2022/03/20 18:15:58;;;;;;;19.07;13.60;;;15.50;68.40;;;;;;4950834;29;20461;-76